Time;durP1;ratioP1;P1;durP2;ratioP2;P2;SDS_P1;SDS_P2;PMS_P1;PMS_P2;Temp;Humidity;BMP_temperature;BMP_pressure;BME280_temperature;BME280_humidity;BME280_pressure;Samples;Min_cycle;Max_cycle;Signal;HPM_P1;HPM_P2
2023/10/11 00:02:16;;;;;;;;;;;;;;;17.11;73.84;101402.50;4899843;29;19915;-89
2023/10/11 00:04:42;;;;;;;;;;;;;;;17.04;74.56;101406.84;4916876;29;19915;-89
2023/10/11 00:07:07;;;;;;;;;;;;;;;17.01;74.34;101401.56;4899853;29;19919;-89
2023/10/11 00:09:35;;;;;;;;;;;;;;;16.96;73.85;101406.78;4916953;29;19919;-90
2023/10/11 00:12:11;;;;;;;;;;;;;;;16.93;74.56;101401.50;4916637;29;20419;-89
2023/10/11 00:14:39;;;;;;;;;;;;;;;16.91;74.27;101405.00;4899567;29;20263;-89
2023/10/11 00:17:09;;;;;;;;;;;;;;;16.89;74.51;101406.72;4899743;29;19915;-89
2023/10/11 00:19:35;;;;;;;;;;;;;;;16.85;73.87;101406.66;4900158;29;20103;-90
2023/10/11 00:22:01;;;;;;;;;;;;;;;16.87;73.96;101404.03;4899272;29;19948;-89
2023/10/11 00:24:28;;;;;;;;;;;;;;;16.85;74.20;101403.16;4899755;29;19915;-89
2023/10/11 00:26:55;;;;;;;;;;;;;;;16.80;74.01;101397.88;4899182;29;19926;-90
2023/10/11 00:29:20;;;;;;;;;;;;;;;16.77;73.90;101402.22;4899411;29;19915;-89
2023/10/11 00:31:45;;;;;;;;;;;;;;;16.77;74.14;101403.13;4886534;29;19998;-89
2023/10/11 00:34:12;;;;;;;;;;;;;;;16.74;74.21;101397.81;4899341;29;19915;-89
2023/10/11 00:36:37;;;;;;;;;;;;;;;16.69;74.42;101404.81;4899197;29;19915;-90
2023/10/11 00:39:05;;;;;;;;;;;;;;;16.69;74.70;101396.94;4899097;29;19926;-90
2023/10/11 00:41:35;;;;;;;;;;;;;;;16.66;74.49;101397.78;4898949;29;19919;-90
2023/10/11 00:44:02;;;;;;;;;;;;;;;16.68;74.40;101398.69;4916022;29;19915;-89
2023/10/11 00:46:36;;;;;;;;;;;;;;;16.62;74.66;101398.63;4916356;29;20020;-89
2023/10/11 00:49:09;;;;;;;;;;;;;;;16.62;74.94;101393.34;4899108;29;19919;-90
2023/10/11 00:51:36;;;;;;;;;;;;;;;16.59;74.72;101400.34;4916155;29;20110;-90
2023/10/11 00:54:04;;;;;;;;;;;;;;;16.55;75.26;101394.19;4915958;29;19915;-89
2023/10/11 00:56:32;;;;;;;;;;;;;;;16.57;75.10;101396.81;4898911;29;19927;-89
2023/10/11 00:59:10;;;;;;;;;;;;;;;16.55;75.15;101398.56;4903035;29;19973;-89
2023/10/11 01:01:36;;;;;;;;;;;;;;;16.49;75.35;101395.00;4916055;29;19971;-89
2023/10/11 01:04:02;;;;;;;;;;;;;;;16.45;75.61;101394.97;4898847;29;19911;-89
2023/10/11 01:06:28;;;;;;;;;;;;;;;16.43;75.73;101392.34;4915727;29;19930;-90
2023/10/11 01:08:54;;;;;;;;;;;;;;;16.40;75.44;101392.31;4915958;29;19916;-89
2023/10/11 01:11:19;;;;;;;;;;;;;;;16.36;75.57;101389.66;4915914;29;19919;-89
2023/10/11 01:13:50;;;;;;;;;;;;;;;16.39;76.03;101395.81;4898588;29;20376;-89
2023/10/11 01:16:17;;;;;;;;;;;;;;;16.39;75.60;101390.53;4915585;29;20036;-89
2023/10/11 01:18:42;;;;;;;;;;;;;;;16.29;76.04;101386.97;4915413;29;19926;-89
2023/10/11 01:21:08;;;;;;;;;;;;;;;16.28;76.26;101390.47;4915420;29;19923;-89
2023/10/11 01:23:34;;;;;;;;;;;;;;;16.24;76.77;101391.31;4898405;29;19915;-89
2023/10/11 01:26:07;;;;;;;;;;;;;;;16.25;76.54;101384.28;4915423;29;19931;-89
2023/10/11 01:28:40;;;;;;;;;;;;;;;16.22;76.59;101382.53;4898455;29;19926;-89
2023/10/11 01:31:10;;;;;;;;;;;;;;;16.14;76.83;101379.81;4898563;29;19911;-89
2023/10/11 01:33:41;;;;;;;;;;;;;;;16.11;76.56;101381.53;4898112;29;19915;-89
2023/10/11 01:36:07;;;;;;;;;;;;;;;16.07;77.25;101382.38;4898058;29;19961;-90
2023/10/11 01:38:49;;;;;;;;;;;;;;;16.03;77.01;101372.69;4897832;29;19962;-89
2023/10/11 01:41:27;;;;;;;;;;;;;;;16.04;77.62;101372.72;4915113;29;19919;-89
2023/10/11 01:43:52;;;;;;;;;;;;;;;15.94;77.37;101371.72;4915113;29;19915;-89
2023/10/11 01:46:24;;;;;;;;;;;;;;;15.90;77.55;101369.97;4898021;29;20400;-89
2023/10/11 01:48:49;;;;;;;;;;;;;;;15.90;78.20;101369.97;4915269;29;19919;-89
2023/10/11 01:51:27;;;;;;;;;;;;;;;15.86;78.30;101362.00;4897975;29;19919;-89
2023/10/11 01:53:56;;;;;;;;;;;;;;;15.81;78.74;101360.25;4914062;29;19966;-89
2023/10/11 01:56:24;;;;;;;;;;;;;;;15.78;78.29;101359.28;4895744;29;19990;-89
2023/10/11 01:58:50;;;;;;;;;;;;;;;15.76;78.19;101353.16;4887476;29;19911;-89
2023/10/11 02:01:21;;;;;;;;;;;;;;;15.74;78.71;101358.38;4914966;29;20006;-89
2023/10/11 02:03:47;;;;;;;;;;;;;;;15.73;78.58;101347.81;4897884;29;19919;-90
2023/10/11 02:06:13;;;;;;;;;;;;;;;15.67;78.48;101345.16;4914769;29;19930;-89
2023/10/11 02:08:38;;;;;;;;;;;;;;;15.62;78.74;101342.47;4914729;29;19915;-89
2023/10/11 02:11:04;;;;;;;;;;;;;;;15.59;79.34;101335.44;4897637;29;19919;-89
2023/10/11 02:13:30;;;;;;;;;;;;;;;15.56;79.15;101329.28;4914721;29;19918;-89
2023/10/11 02:15:59;;;;;;;;;;;;;;;15.54;79.63;101334.53;4897517;29;19982;-89
2023/10/11 02:18:25;;;;;;;;;;;;;;;15.50;80.25;101334.44;4897187;29;20370;-89
2023/10/11 02:20:55;;;;;;;;;;;;;;;15.47;79.56;101330.06;4914366;29;19934;-89
2023/10/11 02:23:20;;;;;;;;;;;;;;;15.45;79.85;101323.91;4897125;29;19975;-89
2023/10/11 02:25:46;;;;;;;;;;;;;;;15.46;79.51;101326.53;4914332;29;20413;-89
2023/10/11 02:28:14;;;;;;;;;;;;;;;15.42;80.52;101315.97;4897387;29;19922;-89
2023/10/11 02:30:41;;;;;;;;;;;;;;;15.42;79.93;101319.47;4897538;29;19980;-89
2023/10/11 02:33:11;;;;;;;;;;;;;;;15.41;80.38;101323.00;4914704;29;20487;-89
2023/10/11 02:35:56;;;;;;;;;;;;;;;15.36;80.59;101316.78;4914545;29;19915;-89
2023/10/11 02:38:22;;;;;;;;;;;;;;;15.36;80.59;101321.19;4914384;29;19915;-89
2023/10/11 02:40:55;;;;;;;;;;;;;;;15.33;80.85;101319.38;4897374;29;19915;-89
2023/10/11 02:43:21;;;;;;;;;;;;;;;15.30;80.61;101319.34;4897122;29;19919;-89
2023/10/11 02:45:46;;;;;;;;;;;;;;;15.26;81.07;101328.06;4914201;29;19919;-89
2023/10/11 02:48:12;;;;;;;;;;;;;;;15.28;81.05;101321.09;4914216;29;20381;-89
2023/10/11 02:50:37;;;;;;;;;;;;;;;15.28;81.22;101323.72;4897236;29;19946;-89
2023/10/11 02:53:12;;;;;;;;;;;;;;;15.24;80.96;101320.16;4896915;29;20050;-89
2023/10/11 02:55:38;;;;;;;;;;;;;;;15.20;81.13;101320.13;4897209;29;20010;-89
2023/10/11 02:58:07;;;;;;;;;;;;;;;15.20;81.38;101322.75;4884184;29;20408;-89
2023/10/11 03:00:43;;;;;;;;;;;;;;;15.16;81.46;101320.94;4914146;29;19922;-88
2023/10/11 03:03:11;;;;;;;;;;;;;;;15.12;81.52;101317.41;4914086;29;19926;-89
2023/10/11 03:05:37;;;;;;;;;;;;;;;15.11;81.99;101318.25;4915328;29;19926;-89
2023/10/11 03:08:19;;;;;;;;;;;;;;;15.09;82.08;101314.72;4900702;29;19926;-89
2023/10/11 03:10:53;;;;;;;;;;;;;;;15.07;82.39;101319.94;4917985;29;20422;-89
2023/10/11 03:13:24;;;;;;;;;;;;;;;15.05;82.19;101316.44;4917855;29;19919;-89
2023/10/11 03:15:56;;;;;;;;;;;;;;;15.07;81.88;101305.94;4917940;29;20403;-89
2023/10/11 03:18:24;;;;;;;;;;;;;;;15.01;83.03;101296.25;4917566;29;19915;-89
2023/10/11 03:20:50;;;;;;;;;;;;;;;15.00;83.18;101288.38;4900345;29;19927;-90
2023/10/11 03:23:20;;;;;;;;;;;;;;;14.98;82.63;101296.22;4900650;29;19915;-90
2023/10/11 03:25:49;;;;;;;;;;;;;;;14.97;82.39;101296.22;4917495;29;19934;-89
2023/10/11 03:28:15;;;;;;;;;;;;;;;14.96;82.72;101308.44;4917783;29;19927;-89
2023/10/11 03:30:40;;;;;;;;;;;;;;;14.97;83.35;101309.31;4917666;29;19915;-90
2023/10/11 03:33:07;;;;;;;;;;;;;;;14.92;82.98;101302.28;4917339;29;20397;-89
2023/10/11 03:35:34;;;;;;;;;;;;;;;14.91;82.86;101307.50;4917462;29;19974;-89
2023/10/11 03:38:00;;;;;;;;;;;;;;;14.89;83.50;101297.00;4917638;29;19915;-89
2023/10/11 03:40:27;;;;;;;;;;;;;;;14.87;83.15;101295.19;4904895;29;19926;-89
2023/10/11 03:42:59;;;;;;;;;;;;;;;14.86;83.70;101299.56;4917366;29;19919;-89
2023/10/11 03:45:27;;;;;;;;;;;;;;;14.84;83.86;101297.78;4917266;29;19920;-89
2023/10/11 03:47:53;;;;;;;;;;;;;;;14.83;83.61;101309.13;4917221;29;20010;-89
2023/10/11 03:50:25;;;;;;;;;;;;;;;14.81;83.59;101303.00;4917346;29;19974;-89
2023/10/11 03:52:50;;;;;;;;;;;;;;;14.80;83.87;101294.22;4900127;29;19919;-89
2023/10/11 03:55:16;;;;;;;;;;;;;;;14.78;84.52;101293.34;4900046;29;19966;-89
2023/10/11 03:57:41;;;;;;;;;;;;;;;14.75;85.24;101283.69;4907377;29;19986;-89
2023/10/11 04:02:56;;;;;;;;;;;;;;;14.74;84.69;101287.19;4905225;29;19923;-89
2023/10/11 04:05:21;;;;;;;;;;;;;;;14.71;85.28;101284.47;4916937;29;20338;-89
2023/10/11 04:07:46;;;;;;;;;;;;;;;14.72;85.46;101285.38;4900021;29;19916;-89
2023/10/11 04:10:19;;;;;;;;;;;;;;;14.69;85.86;101283.59;4900167;29;19965;-89
2023/10/11 04:12:45;;;;;;;;;;;;;;;14.68;85.64;101292.31;4916898;29;19915;-89
2023/10/11 04:15:24;;;;;;;;;;;;;;;14.67;85.66;101280.09;4916882;29;19922;-89
2023/10/11 04:17:50;;;;;;;;;;;;;;;14.67;86.57;101277.47;4898854;29;19926;-89
2023/10/11 04:20:19;;;;;;;;;;;;;;;14.65;87.10;101268.69;4916964;29;19915;-90
2023/10/11 04:23:10;;;;;;;;;;;;;;;14.65;86.74;101266.06;4916889;29;19931;-89
2023/10/11 04:25:38;;;;;;;;;;;;;;;14.66;87.00;101264.34;4916652;29;19923;-89
2023/10/11 04:28:05;;;;;;;;;;;;;;;14.64;87.75;101272.16;4899637;29;19915;-89
2023/10/11 04:30:44;;;;;;;;;;;;;;;14.66;87.63;101262.56;4899420;29;19955;-89
2023/10/11 04:33:13;;;;;;;;;;;;;;;14.66;87.62;101261.72;4911747;29;19927;-89
2023/10/11 04:35:42;;;;;;;;;;;;;;;14.66;86.80;101262.56;4899953;29;19927;-89
2023/10/11 04:38:10;;;;;;;;;;;;;;;14.65;86.62;101260.81;4898232;29;19915;-89
2023/10/11 04:40:42;;;;;;;;;;;;;;;14.63;86.47;101270.41;4897926;29;19957;-89
2023/10/11 04:43:20;;;;;;;;;;;;;;;14.59;87.06;101272.06;4916233;29;20392;-89
2023/10/11 04:45:46;;;;;;;;;;;;;;;14.58;87.09;101277.28;4899240;29;19974;-89
2023/10/11 04:48:15;;;;;;;;;;;;;;;14.56;88.64;101265.91;4916209;29;19915;-89
2023/10/11 04:50:48;;;;;;;;;;;;;;;14.54;87.68;101272.84;4899203;29;19938;-90
2023/10/11 04:53:18;;;;;;;;;;;;;;;14.51;87.78;101272.81;4899011;29;20270;-89
2023/10/11 04:55:47;;;;;;;;;;;;;;;14.49;88.55;101266.69;4916228;29;19919;-89
2023/10/11 04:58:39;;;;;;;;;;;;;;;14.47;88.38;101273.63;4893139;29;19923;-89
2023/10/11 05:01:01;;;;;;;;;;;;;;;14.48;88.17;101278.88;4915483;29;19953;-88
2023/10/11 05:03:29;;;;;;;;;;;;;;;14.45;88.28;101284.09;4915998;29;19938;-89
2023/10/11 05:06:02;;;;;;;;;;;;;;;14.43;87.82;101285.81;4915742;29;19919;-90
2023/10/11 05:08:51;;;;;;;;;;;;;;;14.42;87.81;101273.56;4898849;29;19915;-89
2023/10/11 05:11:35;;;;;;;;;;;;;;;14.39;89.14;101277.00;4915667;29;19915;-90
2023/10/11 05:14:10;;;;;;;;;;;;;;;14.37;88.87;101273.50;4908941;29;19995;-89
2023/10/11 05:16:37;;;;;;;;;;;;;;;14.37;89.59;101280.50;4896988;29;19962;-89
2023/10/11 05:19:05;;;;;;;;;;;;;;;14.36;89.64;101278.72;4887515;29;19923;-89
2023/10/11 05:21:38;;;;;;;;;;;;;;;14.35;89.22;101277.84;4898606;29;20394;-89
2023/10/11 05:24:14;;;;;;;;;;;;;;;14.34;89.31;101289.19;4915659;29;19922;-89
2023/10/11 05:27:02;;;;;;;;;;;;;;;14.32;88.80;101297.88;4898383;29;19942;-89
2023/10/11 05:29:24;;;;;;;;;;;;;;;14.30;89.63;101297.84;4904244;29;20442;-89
2023/10/11 05:34:50;;;;;;;;;;;;;;;14.28;88.88;101304.81;4915474;29;19921;-89
2023/10/11 05:50:55;;;;;;;;;;;;;;;14.23;89.61;101293.38;4907804;29;20036;-89
2023/10/11 05:53:21;;;;;;;;;;;;;;;14.23;90.91;101288.13;4914926;29;19915;-89
2023/10/11 05:55:46;;;;;;;;;;;;;;;14.34;90.77;101296.16;4905100;29;19922;-89
2023/10/11 05:58:13;;;;;;;;;;;;;;;14.27;90.29;101292.56;4895323;29;19914;-89
2023/10/11 06:00:39;;;;;;;;;;;;;;;14.29;90.86;101300.47;4915364;29;20274;-89
2023/10/11 06:03:05;;;;;;;;;;;;;;;14.29;90.90;101301.31;4901847;29;20389;-89
2023/10/11 06:05:39;;;;;;;;;;;;;;;14.30;90.89;101299.59;4914861;29;19919;-89
2023/10/11 06:08:05;;;;;;;;;;;;;;;14.30;91.02;101300.47;4897613;29;19920;-89
2023/10/11 06:10:41;;;;;;;;;;;;;;;14.31;90.76;101302.25;4914969;29;19919;-89
2023/10/11 06:13:07;;;;;;;;;;;;;;;14.32;90.71;101303.13;4914677;29;19911;-89
2023/10/11 06:15:34;;;;;;;;;;;;;;;14.33;91.20;101300.53;4914596;29;19989;-89
2023/10/11 06:18:01;;;;;;;;;;;;;;;14.33;91.30;101290.03;4897785;29;20377;-89
2023/10/11 06:20:29;;;;;;;;;;;;;;;14.33;90.92;101290.03;4897507;29;20289;-89
2023/10/11 06:22:54;;;;;;;;;;;;;;;14.33;91.40;101295.28;4884615;29;19915;-89
2023/10/11 06:25:23;;;;;;;;;;;;;;;14.35;90.95;101296.22;4914329;29;20053;-89
2023/10/11 06:30:22;;;;;;;;;;;;;;;14.36;92.97;101300.56;4914467;29;19938;-89
2023/10/11 06:32:50;;;;;;;;;;;;;;;14.40;92.32;101291.91;4897358;29;19915;-89
2023/10/11 06:35:23;;;;;;;;;;;;;;;14.43;92.12;101293.69;4914704;29;19978;-89
2023/10/11 06:37:52;;;;;;;;;;;;;;;14.44;91.40;101288.47;4914422;29;19915;-89
2023/10/11 06:40:18;;;;;;;;;;;;;;;14.48;92.54;101292.00;4913948;29;20305;-90
2023/10/11 06:42:43;;;;;;;;;;;;;;;14.49;91.91;101300.75;4914334;29;19923;-89
2023/10/11 06:45:16;;;;;;;;;;;;;;;14.51;91.70;101302.56;4897191;29;19915;-89
2023/10/11 06:47:42;;;;;;;;;;;;;;;14.53;92.60;101302.56;4897238;29;19950;-88
2023/10/11 06:50:13;;;;;;;;;;;;;;;14.57;92.22;101300.00;4914561;29;19962;-89
2023/10/11 06:52:45;;;;;;;;;;;;;;;14.60;92.14;101302.69;4901357;29;19915;-89
2023/10/11 06:55:15;;;;;;;;;;;;;;;14.62;92.73;101312.34;4905144;29;20046;-89
2023/10/11 06:57:45;;;;;;;;;;;;;;;14.65;92.00;101308.03;4894176;29;19925;-89
2023/10/11 07:00:29;;;;;;;;;;;;;;;14.75;92.15;101314.28;4897380;29;19925;-89
2023/10/11 07:03:05;;;;;;;;;;;;;;;14.72;91.68;101304.63;4897223;29;19974;-89
2023/10/11 07:05:31;;;;;;;;;;;;;;;14.79;92.33;101313.47;4897193;29;19927;-89
2023/10/11 07:07:58;;;;;;;;;;;;;;;14.88;91.94;101312.72;4884158;29;19922;-88
2023/10/11 07:10:32;;;;;;;;;;;;;;;14.81;92.23;101318.75;4914317;29;19915;-89
2023/10/11 07:13:04;;;;;;;;;;;;;;;14.84;93.04;101318.78;4897101;29;20383;-89
2023/10/11 07:15:43;;;;;;;;;;;;;;;14.92;92.29;101328.50;4897086;29;19950;-89
2023/10/11 07:18:12;;;;;;;;;;;;;;;14.95;92.25;101333.78;4896890;29;20015;-89
2023/10/11 07:20:48;;;;;;;;;;;;;;;15.02;92.44;101339.13;4896857;29;20420;-89
2023/10/11 07:23:22;;;;;;;;;;;;;;;15.09;92.01;101347.13;4914158;29;19923;-88
2023/10/11 07:25:49;;;;;;;;;;;;;;;15.10;91.93;101351.47;4914001;29;19923;-90
2023/10/11 07:28:35;;;;;;;;;;;;;;;15.12;92.47;101356.78;4896877;29;19955;-89
2023/10/11 07:31:02;;;;;;;;;;;;;;;15.16;92.51;101360.31;4913646;29;19921;-88
2023/10/11 07:33:28;;;;;;;;;;;;;;;15.22;92.51;101355.13;4914028;29;20551;-89
2023/10/11 07:35:53;;;;;;;;;;;;;;;15.37;92.64;101357.94;4896638;29;19907;-88
2023/10/11 07:38:18;;;;;;;;;;;;;;;15.34;92.26;101363.16;4896647;29;19957;-89
2023/10/11 07:40:46;;;;;;;;;;;;;;;15.34;91.97;101363.16;4896715;29;19921;-89
2023/10/11 07:43:15;;;;;;;;;;;;;;;15.34;92.04;101357.00;4896639;29;19922;-89
2023/10/11 07:45:47;;;;;;;;;;;;;;;15.39;92.15;101358.84;4896570;29;19923;-89
2023/10/11 07:48:14;;;;;;;;;;;;;;;15.43;92.35;101347.50;4913484;29;19995;-89
2023/10/11 07:50:39;;;;;;;;;;;;;;;15.51;91.99;101346.72;4913289;29;20378;-88
2023/10/11 07:53:05;;;;;;;;;;;;;;;15.61;91.42;101343.31;4898276;29;19971;-89
2023/10/11 07:55:30;;;;;;;;;;;;;;;15.61;91.30;101345.94;4887084;29;20072;-89
2023/10/11 07:58:00;;;;;;;;;;;;;;;15.69;91.33;101359.19;4899957;29;20420;-90
2023/10/11 08:00:30;;;;;;;;;;;;;;;15.87;90.46;101350.63;4900084;29;19911;-89
2023/10/11 08:03:04;;;;;;;;;;;;;;;15.80;91.15;101350.59;4916871;29;19915;-90
2023/10/11 08:05:32;;;;;;;;;;;;;;;15.86;91.27;101360.28;4899656;29;19963;-89
2023/10/11 08:07:58;;;;;;;;;;;;;;;16.11;91.10;101350.88;4899754;29;19923;-89
2023/10/11 08:10:29;;;;;;;;;;;;;;;16.07;91.08;101351.69;4900029;29;19915;-89
2023/10/11 08:12:57;;;;;;;;;;;;;;;16.14;91.35;101353.53;4916806;29;19907;-89
2023/10/11 08:15:25;;;;;;;;;;;;;;;16.15;91.59;101354.41;4899531;29;19915;-90
2023/10/11 08:17:50;;;;;;;;;;;;;;;16.30;91.13;101354.53;4916722;29;19922;-89
2023/10/11 08:20:15;;;;;;;;;;;;;;;16.32;91.20;101355.44;4899541;29;19927;-89
2023/10/11 08:22:41;;;;;;;;;;;;;;;16.25;91.64;101360.63;4916673;29;19922;-89
2023/10/11 08:25:12;;;;;;;;;;;;;;;16.27;91.36;101364.16;4916146;29;19915;-89
2023/10/11 08:27:37;;;;;;;;;;;;;;;16.26;92.00;101365.88;4899304;29;19915;-89
2023/10/11 08:30:09;;;;;;;;;;;;;;;16.26;91.80;101365.88;4899619;29;19923;-89
2023/10/11 08:32:38;;;;;;;;;;;;;;;16.33;92.20;101369.47;4892173;29;20086;-89
2023/10/11 08:35:06;;;;;;;;;;;;;;;16.36;91.58;101369.47;4899127;29;20278;-90
2023/10/11 08:37:32;;;;;;;;;;;;;;;16.39;91.53;101371.25;4916345;29;19954;-89
2023/10/11 08:39:57;;;;;;;;;;;;;;;16.46;91.44;101362.56;4916125;29;19946;-89
2023/10/11 08:42:30;;;;;;;;;;;;;;;16.43;91.75;101368.66;4899004;29;20364;-89
2023/10/11 08:44:59;;;;;;;;;;;;;;;16.51;92.12;101366.97;4916235;29;20397;-89
2023/10/11 08:47:24;;;;;;;;;;;;;;;16.53;91.94;101364.34;4899391;29;19919;-89
2023/10/11 08:49:50;;;;;;;;;;;;;;;16.62;91.72;101380.19;4883603;29;19915;-89
2023/10/11 08:52:22;;;;;;;;;;;;;;;16.69;92.15;101373.25;4889315;29;19930;-88
2023/10/11 08:54:48;;;;;;;;;;;;;;;16.88;90.98;101370.78;4901787;29;19915;-89
2023/10/11 08:57:13;;;;;;;;;;;;;;;16.90;91.99;101376.91;4915063;29;20285;-88
2023/10/11 08:59:48;;;;;;;;;;;;;;;16.96;91.52;101382.19;4916023;29;20006;-88
2023/10/11 09:02:17;;;;;;;;;;;;;;;17.14;91.17;101373.53;4915572;29;19975;-89
2023/10/11 09:05:32;;;;;;;;;;;;;;;17.16;91.16;101392.84;4898354;29;20325;-89
2023/10/11 09:07:57;;;;;;;;;;;;;;;17.01;92.29;101401.56;4896608;29;19977;-88
2023/10/11 09:10:32;;;;;;;;;;;;;;;17.13;92.42;101399.00;4915754;29;20373;-89
2023/10/11 09:12:58;;;;;;;;;;;;;;;17.17;91.45;101394.63;4898743;29;20350;-89
2023/10/11 09:15:43;;;;;;;;;;;;;;;17.04;92.31;101386.63;4898427;29;19959;-89
2023/10/11 09:18:15;;;;;;;;;;;;;;;17.25;92.41;101395.53;4915668;29;19925;-89
2023/10/11 09:20:48;;;;;;;;;;;;;;;17.12;93.14;101385.78;4898347;29;19975;-89
2023/10/11 09:23:20;;;;;;;;;;;;;;;17.05;93.23;101384.91;4887883;29;20318;-89
2023/10/11 09:25:57;;;;;;;;;;;;;;;17.03;93.08;101394.53;4912665;29;20302;-88
2023/10/11 09:28:23;;;;;;;;;;;;;;;17.13;93.72;101387.56;4881862;29;19927;-89
2023/10/11 09:31:03;;;;;;;;;;;;;;;17.27;93.59;101382.38;4904854;29;20002;-88
2023/10/11 09:33:34;;;;;;;;;;;;;;;17.24;93.65;101398.19;4898110;29;19919;-89
2023/10/11 09:36:03;;;;;;;;;;;;;;;17.20;94.25;101394.63;4915455;29;19985;-88
2023/10/11 09:38:38;;;;;;;;;;;;;;;17.33;94.40;101395.56;4885487;29;20337;-89
2023/10/11 09:41:07;;;;;;;;;;;;;;;17.21;95.35;101404.28;4913965;29;20286;-89
2023/10/11 09:43:36;;;;;;;;;;;;;;;17.28;94.71;101405.19;4876654;29;20341;-88
2023/10/11 09:46:03;;;;;;;;;;;;;;;17.20;95.98;101405.16;4889679;29;19933;-89
2023/10/11 09:48:29;;;;;;;;;;;;;;;17.25;96.12;101403.44;4884145;29;19915;-89
2023/10/11 09:50:57;;;;;;;;;;;;;;;17.41;95.65;101391.22;4915077;29;19915;-88
2023/10/11 09:53:25;;;;;;;;;;;;;;;17.21;96.13;101392.00;4882299;29;20002;-89
2023/10/11 09:55:56;;;;;;;;;;;;;;;17.22;96.99;101392.91;4887948;29;19915;-89
2023/10/11 09:58:21;;;;;;;;;;;;;;;17.33;97.19;101393.81;4913234;29;19912;-89
2023/10/11 10:00:51;;;;;;;;;;;;;;;17.27;97.30;101383.25;4914759;29;19915;-89
2023/10/11 10:03:17;;;;;;;;;;;;;;;17.46;96.95;101405.28;4914764;29;19953;-89
2023/10/11 10:06:00;;;;;;;;;;;;;;;17.44;97.40;101404.41;4897769;29;19970;-89
2023/10/11 10:08:28;;;;;;;;;;;;;;;17.28;97.34;101400.81;4897703;29;20010;-89
2023/10/11 10:10:54;;;;;;;;;;;;;;;17.42;98.22;101413.16;4914917;29;20758;-90
2023/10/11 10:13:24;;;;;;;;;;;;;;;17.38;97.14;101407.88;4914507;29;19925;-89
2023/10/11 10:15:52;;;;;;;;;;;;;;;17.37;97.93;101421.06;4913884;29;19926;-89
2023/10/11 10:18:17;;;;;;;;;;;;;;;17.31;98.22;101419.28;4914279;29;20006;-88
2023/10/11 10:20:43;;;;;;;;;;;;;;;17.27;98.89;101424.53;4914131;29;20437;-89
2023/10/11 10:23:14;;;;;;;;;;;;;;;17.42;98.28;101419.31;4897323;29;20011;-89
2023/10/11 10:25:40;;;;;;;;;;;;;;;17.33;98.77;101416.66;4897595;29;19919;-89
2023/10/11 10:28:25;;;;;;;;;;;;;;;17.36;99.19;101411.38;4897285;29;20357;-89
2023/10/11 10:31:26;;;;;;;;;;;;;;;17.28;99.60;101405.19;4897106;29;19976;-89
2023/10/11 10:34:04;;;;;;;;;;;;;;;17.29;99.35;101402.59;4858735;29;19920;-89
2023/10/11 10:36:31;;;;;;;;;;;;;;;17.34;99.13;101411.38;4892092;29;19994;-88
2023/10/11 10:39:48;;;;;;;;;;;;;;;17.29;99.55;101401.69;4897108;29;19922;-88
2023/10/11 10:42:08;;;;;;;;;;;;;;;17.36;99.14;101400.84;4903949;29;19963;-89
2023/10/11 10:44:44;;;;;;;;;;;;;;;17.25;100.00;101410.44;4914170;29;19915;-89
2023/10/11 10:47:09;;;;;;;;;;;;;;;17.31;99.85;101405.22;4897072;29;19919;-88
2023/10/11 10:49:42;;;;;;;;;;;;;;;17.35;99.41;101407.88;4914030;29;19915;-88
2023/10/11 10:52:29;;;;;;;;;;;;;;;17.30;99.88;101406.09;4913998;29;20014;-89
2023/10/11 10:54:55;;;;;;;;;;;;;;;17.32;100.00;101407.88;4875125;29;19915;-89
2023/10/11 10:57:26;;;;;;;;;;;;;;;17.31;100.00;101421.03;4914178;29;20377;-89
2023/10/11 10:59:51;;;;;;;;;;;;;;;17.29;100.00;101420.13;4898050;29;19955;-89
2023/10/11 11:02:19;;;;;;;;;;;;;;;17.31;100.00;101406.09;4872355;29;20023;-88
2023/10/11 11:04:44;;;;;;;;;;;;;;;17.30;100.00;101403.47;4882503;29;19926;-89
2023/10/11 11:07:20;;;;;;;;;;;;;;;17.44;100.00;101407.03;4887636;29;19923;-89
2023/10/11 11:09:47;;;;;;;;;;;;;;;17.43;100.00;101399.13;4875802;29;19915;-89
2023/10/11 11:12:14;;;;;;;;;;;;;;;17.46;100.00;101405.28;4880852;29;19915;-89
2023/10/11 11:14:54;;;;;;;;;;;;;;;17.44;100.00;101401.78;4903939;29;19915;-89
2023/10/11 11:17:19;;;;;;;;;;;;;;;17.40;100.00;101383.31;4878423;29;20276;-89
2023/10/11 11:20:00;;;;;;;;;;;;;;;17.35;100.00;101376.28;4905668;29;19922;-88
2023/10/11 11:22:37;;;;;;;;;;;;;;;17.38;100.00;101375.41;4887564;29;19978;-88
2023/10/11 11:25:15;;;;;;;;;;;;;;;17.41;100.00;101370.16;4903075;29;20010;-89
2023/10/11 11:27:41;;;;;;;;;;;;;;;17.44;100.00;101390.34;4893430;29;19962;-89
2023/10/11 11:30:29;;;;;;;;;;;;;;;17.52;100.00;101393.88;4893112;29;20287;-89
2023/10/11 11:32:54;;;;;;;;;;;;;;;17.52;100.00;101373.72;4913111;29;19919;-88
2023/10/11 11:35:29;;;;;;;;;;;;;;;17.52;100.00;101365.81;4908353;29;20293;-89
2023/10/11 11:38:02;;;;;;;;;;;;;;;17.49;100.00;101363.13;4914766;29;19919;-89
2023/10/11 11:40:27;;;;;;;;;;;;;;;17.45;100.00;101356.13;4896377;29;20015;-89
2023/10/11 11:42:53;;;;;;;;;;;;;;;17.51;100.00;101344.69;4898738;29;20367;-89
2023/10/11 11:45:26;;;;;;;;;;;;;;;17.51;100.00;101331.50;4915182;29;20298;-89
2023/10/11 11:47:57;;;;;;;;;;;;;;;17.57;100.00;101336.81;4916623;29;19926;-89
2023/10/11 11:50:23;;;;;;;;;;;;;;;17.63;100.00;101328.06;4902923;29;19915;-89
2023/10/11 11:52:48;;;;;;;;;;;;;;;17.59;100.00;101345.59;4885662;29;19930;-89
2023/10/11 11:55:13;;;;;;;;;;;;;;;17.59;100.00;101336.81;4882081;29;19927;-89
2023/10/11 11:57:38;;;;;;;;;;;;;;;17.69;100.00;101341.25;4871528;29;19950;-89
2023/10/11 12:00:26;;;;;;;;;;;;;;;17.60;100.00;101343.84;4866927;29;19926;-89
2023/10/11 12:02:53;;;;;;;;;;;;;;;17.56;100.00;101328.03;4886850;29;19916;-89
2023/10/11 12:05:19;;;;;;;;;;;;;;;17.59;100.00;101321.00;4873333;29;20165;-89
2023/10/11 12:07:44;;;;;;;;;;;;;;;17.64;100.00;101303.44;4874497;29;20244;-89
2023/10/11 12:10:27;;;;;;;;;;;;;;;17.71;100.00;101289.41;4874205;29;19934;-89
2023/10/11 12:12:53;;;;;;;;;;;;;;;17.97;100.00;101307.03;4895087;29;19983;-89
2023/10/11 12:15:19;;;;;;;;;;;;;;;17.97;99.44;101297.34;4889988;29;19923;-90
2023/10/11 12:17:45;;;;;;;;;;;;;;;18.01;99.63;101293.84;4900378;29;20305;-89
2023/10/11 12:20:14;;;;;;;;;;;;;;;18.10;99.02;101290.31;4911763;29;19919;-89
2023/10/11 12:22:42;;;;;;;;;;;;;;;18.19;98.98;101294.72;4879078;29;19984;-88
2023/10/11 12:25:09;;;;;;;;;;;;;;;18.26;97.84;101288.56;4874420;29;19927;-89
2023/10/11 12:27:38;;;;;;;;;;;;;;;18.32;97.88;101292.94;4899186;29;20394;-90
2023/10/11 12:30:09;;;;;;;;;;;;;;;18.41;97.56;101292.94;4916470;29;19923;-89
2023/10/11 12:32:34;;;;;;;;;;;;;;;18.44;96.29;101298.22;4906807;29;19969;-89
2023/10/11 12:35:04;;;;;;;;;;;;;;;18.46;96.34;101301.72;4897575;29;19946;-89
2023/10/11 12:37:30;;;;;;;;;;;;;;;18.51;95.45;101299.06;4896815;29;19919;-89
2023/10/11 12:39:55;;;;;;;;;;;;;;;18.51;95.12;101286.78;4899380;29;20362;-89
2023/10/11 12:42:22;;;;;;;;;;;;;;;18.47;95.60;101281.50;4882537;29;20489;-89
2023/10/11 12:44:47;;;;;;;;;;;;;;;18.58;94.98;101288.50;4875329;29;19931;-88
2023/10/11 12:47:12;;;;;;;;;;;;;;;18.60;95.36;101289.38;4871861;29;19979;-89
2023/10/11 12:49:38;;;;;;;;;;;;;;;18.71;95.58;101286.72;4905884;29;19919;-89
2023/10/11 12:52:06;;;;;;;;;;;;;;;18.91;94.97;101284.03;4875373;29;19920;-90
2023/10/11 12:54:31;;;;;;;;;;;;;;;19.00;93.08;101282.25;4890425;29;19923;-89
2023/10/11 12:56:56;;;;;;;;;;;;;;;19.07;93.00;101286.59;4872795;29;19926;-89
2023/10/11 12:59:22;;;;;;;;;;;;;;;19.13;92.72;101288.34;4882909;29;19919;-89
2023/10/11 13:01:52;;;;;;;;;;;;;;;19.14;93.17;101283.06;4888871;29;19923;-89
2023/10/11 13:04:18;;;;;;;;;;;;;;;19.19;92.94;101283.03;4881971;29;20013;-89
2023/10/11 13:06:49;;;;;;;;;;;;;;;19.20;92.44;101279.50;4882890;29;20413;-88
2023/10/11 13:09:15;;;;;;;;;;;;;;;19.15;92.83;101279.53;4878723;29;20301;-89
2023/10/11 13:11:46;;;;;;;;;;;;;;;19.11;93.21;101267.22;4877229;29;19920;-88